sensor_id;sensor_type;location;lat;lon;timestamp;P1;durP1;ratioP1;P2;durP2;ratioP2
74995;SDS011;63545;51.690;5.202;2023-09-18T00:01:04;35.53;;;26.90;;
74995;SDS011;63545;51.690;5.202;2023-09-18T00:03:30;35.60;;;25.42;;
74995;SDS011;63545;51.690;5.202;2023-09-18T00:05:56;36.23;;;26.83;;
74995;SDS011;63545;51.690;5.202;2023-09-18T00:08:21;40.07;;;26.30;;
74995;SDS011;63545;51.690;5.202;2023-09-18T00:10:51;41.53;;;26.00;;
74995;SDS011;63545;51.690;5.202;2023-09-18T00:13:17;37.57;;;25.87;;
74995;SDS011;63545;51.690;5.202;2023-09-18T00:15:43;36.72;;;25.58;;
74995;SDS011;63545;51.690;5.202;2023-09-18T00:18:11;38.30;;;26.03;;
74995;SDS011;63545;51.690;5.202;2023-09-18T00:20:38;37.72;;;26.55;;
74995;SDS011;63545;51.690;5.202;2023-09-18T00:23:03;37.30;;;25.70;;
74995;SDS011;63545;51.690;5.202;2023-09-18T00:25:28;38.10;;;25.93;;
74995;SDS011;63545;51.690;5.202;2023-09-18T00:27:55;40.90;;;26.40;;
74995;SDS011;63545;51.690;5.202;2023-09-18T00:30:21;39.27;;;26.97;;
74995;SDS011;63545;51.690;5.202;2023-09-18T00:32:46;33.77;;;25.83;;
74995;SDS011;63545;51.690;5.202;2023-09-18T00:35:15;37.00;;;26.70;;
74995;SDS011;63545;51.690;5.202;2023-09-18T00:37:40;39.88;;;25.92;;
74995;SDS011;63545;51.690;5.202;2023-09-18T00:40:06;35.53;;;24.27;;
74995;SDS011;63545;51.690;5.202;2023-09-18T00:42:32;37.13;;;25.58;;
74995;SDS011;63545;51.690;5.202;2023-09-18T00:44:57;35.57;;;25.20;;
74995;SDS011;63545;51.690;5.202;2023-09-18T00:47:23;34.80;;;24.83;;
74995;SDS011;63545;51.690;5.202;2023-09-18T00:49:48;36.20;;;24.33;;
74995;SDS011;63545;51.690;5.202;2023-09-18T00:52:15;37.70;;;25.23;;
74995;SDS011;63545;51.690;5.202;2023-09-18T00:54:41;35.75;;;25.13;;
74995;SDS011;63545;51.690;5.202;2023-09-18T00:57:08;34.17;;;24.87;;
74995;SDS011;63545;51.690;5.202;2023-09-18T00:59:35;33.40;;;24.17;;
74995;SDS011;63545;51.690;5.202;2023-09-18T01:02:01;35.75;;;24.42;;
74995;SDS011;63545;51.690;5.202;2023-09-18T01:04:27;37.05;;;24.25;;
74995;SDS011;63545;51.690;5.202;2023-09-18T01:06:53;36.77;;;23.67;;
74995;SDS011;63545;51.690;5.202;2023-09-18T01:09:21;35.25;;;23.45;;
74995;SDS011;63545;51.690;5.202;2023-09-18T01:12:05;33.22;;;23.30;;
74995;SDS011;63545;51.690;5.202;2023-09-18T01:14:40;31.80;;;23.40;;
74995;SDS011;63545;51.690;5.202;2023-09-18T01:17:09;35.17;;;24.13;;
74995;SDS011;63545;51.690;5.202;2023-09-18T01:22:05;33.05;;;23.70;;
74995;SDS011;63545;51.690;5.202;2023-09-18T01:24:34;32.88;;;23.30;;
74995;SDS011;63545;51.690;5.202;2023-09-18T01:26:59;31.20;;;22.70;;
74995;SDS011;63545;51.690;5.202;2023-09-18T01:29:25;32.63;;;22.58;;
74995;SDS011;63545;51.690;5.202;2023-09-18T01:31:50;33.30;;;22.90;;
74995;SDS011;63545;51.690;5.202;2023-09-18T01:34:18;36.30;;;23.33;;
74995;SDS011;63545;51.690;5.202;2023-09-18T01:36:44;30.53;;;21.20;;
74995;SDS011;63545;51.690;5.202;2023-09-18T01:39:10;32.53;;;22.25;;
74995;SDS011;63545;51.690;5.202;2023-09-18T01:41:36;31.03;;;21.20;;
74995;SDS011;63545;51.690;5.202;2023-09-18T01:44:02;29.25;;;20.45;;
74995;SDS011;63545;51.690;5.202;2023-09-18T01:46:29;30.48;;;20.58;;
74995;SDS011;63545;51.690;5.202;2023-09-18T01:48:57;29.23;;;20.63;;
74995;SDS011;63545;51.690;5.202;2023-09-18T01:51:23;32.27;;;19.93;;
74995;SDS011;63545;51.690;5.202;2023-09-18T01:53:49;28.20;;;19.73;;
74995;SDS011;63545;51.690;5.202;2023-09-18T01:56:15;31.37;;;19.10;;
74995;SDS011;63545;51.690;5.202;2023-09-18T01:58:41;27.10;;;18.93;;
74995;SDS011;63545;51.690;5.202;2023-09-18T02:01:06;26.23;;;18.40;;
74995;SDS011;63545;51.690;5.202;2023-09-18T02:03:31;25.93;;;18.50;;
74995;SDS011;63545;51.690;5.202;2023-09-18T02:05:57;29.00;;;19.33;;
74995;SDS011;63545;51.690;5.202;2023-09-18T02:08:22;26.97;;;18.57;;
74995;SDS011;63545;51.690;5.202;2023-09-18T02:10:47;23.73;;;17.03;;
74995;SDS011;63545;51.690;5.202;2023-09-18T02:13:13;26.40;;;17.10;;
74995;SDS011;63545;51.690;5.202;2023-09-18T02:15:38;28.73;;;17.13;;
74995;SDS011;63545;51.690;5.202;2023-09-18T02:18:04;25.00;;;16.53;;
74995;SDS011;63545;51.690;5.202;2023-09-18T02:20:29;23.23;;;16.03;;
74995;SDS011;63545;51.690;5.202;2023-09-18T02:22:54;24.07;;;16.47;;
74995;SDS011;63545;51.690;5.202;2023-09-18T02:25:20;26.98;;;15.60;;
74995;SDS011;63545;51.690;5.202;2023-09-18T02:27:46;21.83;;;14.90;;
74995;SDS011;63545;51.690;5.202;2023-09-18T02:30:11;23.23;;;15.23;;
74995;SDS011;63545;51.690;5.202;2023-09-18T02:32:37;21.98;;;14.43;;
74995;SDS011;63545;51.690;5.202;2023-09-18T02:35:02;22.63;;;14.13;;
74995;SDS011;63545;51.690;5.202;2023-09-18T02:37:29;21.95;;;14.10;;
74995;SDS011;63545;51.690;5.202;2023-09-18T02:39:54;18.53;;;13.60;;
74995;SDS011;63545;51.690;5.202;2023-09-18T02:42:19;27.53;;;14.10;;
74995;SDS011;63545;51.690;5.202;2023-09-18T02:44:45;20.13;;;13.83;;
74995;SDS011;63545;51.690;5.202;2023-09-18T02:47:10;19.23;;;13.40;;
74995;SDS011;63545;51.690;5.202;2023-09-18T02:49:36;22.40;;;13.30;;
74995;SDS011;63545;51.690;5.202;2023-09-18T02:52:02;17.47;;;12.83;;
74995;SDS011;63545;51.690;5.202;2023-09-18T02:54:28;16.73;;;12.43;;
74995;SDS011;63545;51.690;5.202;2023-09-18T02:56:53;19.67;;;13.00;;
74995;SDS011;63545;51.690;5.202;2023-09-18T02:59:18;19.73;;;12.53;;
74995;SDS011;63545;51.690;5.202;2023-09-18T03:01:44;20.13;;;13.30;;
74995;SDS011;63545;51.690;5.202;2023-09-18T03:04:09;18.33;;;12.63;;
74995;SDS011;63545;51.690;5.202;2023-09-18T03:06:37;17.73;;;12.70;;
74995;SDS011;63545;51.690;5.202;2023-09-18T03:09:03;19.17;;;12.33;;
74995;SDS011;63545;51.690;5.202;2023-09-18T03:11:29;19.37;;;12.53;;
74995;SDS011;63545;51.690;5.202;2023-09-18T03:13:54;25.75;;;12.93;;
74995;SDS011;63545;51.690;5.202;2023-09-18T03:16:20;22.80;;;12.20;;
74995;SDS011;63545;51.690;5.202;2023-09-18T03:18:45;21.80;;;12.03;;
74995;SDS011;63545;51.690;5.202;2023-09-18T03:21:10;20.77;;;13.00;;
74995;SDS011;63545;51.690;5.202;2023-09-18T03:23:36;20.92;;;11.63;;
74995;SDS011;63545;51.690;5.202;2023-09-18T03:26:01;20.47;;;12.30;;
74995;SDS011;63545;51.690;5.202;2023-09-18T03:28:27;17.25;;;11.38;;
74995;SDS011;63545;51.690;5.202;2023-09-18T03:30:53;24.80;;;12.37;;
74995;SDS011;63545;51.690;5.202;2023-09-18T03:33:18;19.43;;;11.60;;
74995;SDS011;63545;51.690;5.202;2023-09-18T03:35:50;21.40;;;12.10;;
74995;SDS011;63545;51.690;5.202;2023-09-18T03:38:19;25.35;;;12.20;;
74995;SDS011;63545;51.690;5.202;2023-09-18T03:40:45;21.90;;;12.23;;
74995;SDS011;63545;51.690;5.202;2023-09-18T03:43:11;22.07;;;12.07;;
74995;SDS011;63545;51.690;5.202;2023-09-18T03:45:39;16.80;;;12.05;;
74995;SDS011;63545;51.690;5.202;2023-09-18T03:48:08;20.03;;;11.60;;
74995;SDS011;63545;51.690;5.202;2023-09-18T03:50:33;22.38;;;12.45;;
74995;SDS011;63545;51.690;5.202;2023-09-18T03:52:58;16.90;;;12.00;;
74995;SDS011;63545;51.690;5.202;2023-09-18T03:55:24;20.37;;;11.67;;
74995;SDS011;63545;51.690;5.202;2023-09-18T03:57:49;18.13;;;11.67;;
74995;SDS011;63545;51.690;5.202;2023-09-18T04:00:15;20.90;;;12.27;;
74995;SDS011;63545;51.690;5.202;2023-09-18T04:02:41;19.93;;;12.00;;
74995;SDS011;63545;51.690;5.202;2023-09-18T04:05:06;18.45;;;11.77;;
74995;SDS011;63545;51.690;5.202;2023-09-18T04:07:32;18.53;;;11.80;;
74995;SDS011;63545;51.690;5.202;2023-09-18T04:09:57;16.33;;;11.37;;
74995;SDS011;63545;51.690;5.202;2023-09-18T04:12:23;19.42;;;11.70;;
74995;SDS011;63545;51.690;5.202;2023-09-18T04:14:48;20.60;;;11.23;;
74995;SDS011;63545;51.690;5.202;2023-09-18T04:17:14;21.13;;;11.50;;
74995;SDS011;63545;51.690;5.202;2023-09-18T04:19:40;22.27;;;12.02;;
74995;SDS011;63545;51.690;5.202;2023-09-18T04:22:05;19.03;;;12.30;;
74995;SDS011;63545;51.690;5.202;2023-09-18T04:24:30;25.17;;;12.27;;
74995;SDS011;63545;51.690;5.202;2023-09-18T04:26:56;22.27;;;12.10;;
74995;SDS011;63545;51.690;5.202;2023-09-18T04:29:21;22.45;;;12.32;;
74995;SDS011;63545;51.690;5.202;2023-09-18T04:31:46;19.00;;;12.37;;
74995;SDS011;63545;51.690;5.202;2023-09-18T04:34:13;21.33;;;12.30;;
74995;SDS011;63545;51.690;5.202;2023-09-18T04:36:39;17.25;;;12.50;;
74995;SDS011;63545;51.690;5.202;2023-09-18T04:39:04;21.43;;;12.90;;
74995;SDS011;63545;51.690;5.202;2023-09-18T04:41:31;25.33;;;14.10;;
74995;SDS011;63545;51.690;5.202;2023-09-18T04:43:56;22.67;;;13.07;;
74995;SDS011;63545;51.690;5.202;2023-09-18T04:46:22;26.03;;;12.50;;
74995;SDS011;63545;51.690;5.202;2023-09-18T04:48:49;20.42;;;13.13;;
74995;SDS011;63545;51.690;5.202;2023-09-18T04:51:14;20.27;;;12.88;;
74995;SDS011;63545;51.690;5.202;2023-09-18T04:53:40;23.70;;;13.03;;
74995;SDS011;63545;51.690;5.202;2023-09-18T04:56:06;20.13;;;13.18;;
74995;SDS011;63545;51.690;5.202;2023-09-18T04:58:31;22.23;;;12.93;;
74995;SDS011;63545;51.690;5.202;2023-09-18T05:00:57;22.07;;;13.77;;
74995;SDS011;63545;51.690;5.202;2023-09-18T05:03:23;22.30;;;12.73;;
74995;SDS011;63545;51.690;5.202;2023-09-18T05:05:49;22.00;;;12.77;;
74995;SDS011;63545;51.690;5.202;2023-09-18T05:08:14;21.27;;;13.20;;
74995;SDS011;63545;51.690;5.202;2023-09-18T05:10:40;23.40;;;13.47;;
74995;SDS011;63545;51.690;5.202;2023-09-18T05:13:05;20.60;;;13.20;;
74995;SDS011;63545;51.690;5.202;2023-09-18T05:15:31;22.77;;;12.93;;
74995;SDS011;63545;51.690;5.202;2023-09-18T05:17:57;22.10;;;14.45;;
74995;SDS011;63545;51.690;5.202;2023-09-18T05:20:24;28.30;;;13.33;;
74995;SDS011;63545;51.690;5.202;2023-09-18T05:22:53;21.52;;;13.45;;
74995;SDS011;63545;51.690;5.202;2023-09-18T05:25:20;19.67;;;14.05;;
74995;SDS011;63545;51.690;5.202;2023-09-18T05:27:50;26.58;;;12.95;;
74995;SDS011;63545;51.690;5.202;2023-09-18T05:30:21;22.30;;;13.10;;
74995;SDS011;63545;51.690;5.202;2023-09-18T05:32:52;23.53;;;13.37;;
74995;SDS011;63545;51.690;5.202;2023-09-18T05:35:18;20.13;;;13.05;;
74995;SDS011;63545;51.690;5.202;2023-09-18T05:37:43;23.33;;;12.90;;
74995;SDS011;63545;51.690;5.202;2023-09-18T05:40:09;21.53;;;12.97;;
74995;SDS011;63545;51.690;5.202;2023-09-18T05:42:40;20.58;;;11.75;;
74995;SDS011;63545;51.690;5.202;2023-09-18T05:45:11;22.60;;;11.65;;
74995;SDS011;63545;51.690;5.202;2023-09-18T05:47:37;17.97;;;11.17;;
74995;SDS011;63545;51.690;5.202;2023-09-18T05:50:04;25.08;;;11.20;;
74995;SDS011;63545;51.690;5.202;2023-09-18T05:52:33;21.35;;;10.38;;
74995;SDS011;63545;51.690;5.202;2023-09-18T05:54:59;19.42;;;9.63;;
74995;SDS011;63545;51.690;5.202;2023-09-18T05:57:25;15.65;;;10.10;;
74995;SDS011;63545;51.690;5.202;2023-09-18T05:59:52;17.87;;;10.00;;
74995;SDS011;63545;51.690;5.202;2023-09-18T06:02:18;19.50;;;9.70;;
74995;SDS011;63545;51.690;5.202;2023-09-18T06:04:43;16.30;;;9.40;;
74995;SDS011;63545;51.690;5.202;2023-09-18T06:07:08;14.77;;;9.40;;
74995;SDS011;63545;51.690;5.202;2023-09-18T06:09:34;16.17;;;9.18;;
74995;SDS011;63545;51.690;5.202;2023-09-18T06:11:59;17.20;;;8.47;;
74995;SDS011;63545;51.690;5.202;2023-09-18T06:14:25;13.73;;;8.20;;
74995;SDS011;63545;51.690;5.202;2023-09-18T06:16:50;15.55;;;9.07;;
74995;SDS011;63545;51.690;5.202;2023-09-18T06:19:16;14.70;;;8.00;;
74995;SDS011;63545;51.690;5.202;2023-09-18T06:21:44;11.70;;;7.30;;
74995;SDS011;63545;51.690;5.202;2023-09-18T06:24:10;12.47;;;7.37;;
74995;SDS011;63545;51.690;5.202;2023-09-18T06:26:35;11.97;;;7.00;;
74995;SDS011;63545;51.690;5.202;2023-09-18T06:29:00;11.80;;;6.87;;
74995;SDS011;63545;51.690;5.202;2023-09-18T06:31:27;13.57;;;7.07;;
74995;SDS011;63545;51.690;5.202;2023-09-18T06:33:52;9.10;;;6.37;;
74995;SDS011;63545;51.690;5.202;2023-09-18T06:36:17;10.40;;;6.40;;
74995;SDS011;63545;51.690;5.202;2023-09-18T06:38:43;12.90;;;6.67;;
74995;SDS011;63545;51.690;5.202;2023-09-18T06:41:08;10.27;;;5.90;;
74995;SDS011;63545;51.690;5.202;2023-09-18T06:43:33;9.43;;;5.97;;
74995;SDS011;63545;51.690;5.202;2023-09-18T06:45:59;12.73;;;5.40;;
74995;SDS011;63545;51.690;5.202;2023-09-18T06:48:24;8.63;;;5.17;;
74995;SDS011;63545;51.690;5.202;2023-09-18T06:50:50;8.03;;;5.57;;
74995;SDS011;63545;51.690;5.202;2023-09-18T06:53:15;10.33;;;4.93;;
74995;SDS011;63545;51.690;5.202;2023-09-18T06:55:40;7.70;;;5.10;;
74995;SDS011;63545;51.690;5.202;2023-09-18T06:58:06;8.80;;;4.80;;
74995;SDS011;63545;51.690;5.202;2023-09-18T07:00:31;8.47;;;4.80;;
74995;SDS011;63545;51.690;5.202;2023-09-18T07:02:57;8.97;;;4.30;;
74995;SDS011;63545;51.690;5.202;2023-09-18T07:05:22;7.37;;;4.03;;
74995;SDS011;63545;51.690;5.202;2023-09-18T07:07:47;6.17;;;4.40;;
74995;SDS011;63545;51.690;5.202;2023-09-18T07:10:13;6.30;;;4.10;;
74995;SDS011;63545;51.690;5.202;2023-09-18T07:12:38;9.07;;;3.90;;
74995;SDS011;63545;51.690;5.202;2023-09-18T07:15:04;8.40;;;3.87;;
74995;SDS011;63545;51.690;5.202;2023-09-18T07:17:31;5.63;;;3.42;;
74995;SDS011;63545;51.690;5.202;2023-09-18T07:19:56;8.10;;;3.67;;
74995;SDS011;63545;51.690;5.202;2023-09-18T07:22:22;5.50;;;3.60;;
74995;SDS011;63545;51.690;5.202;2023-09-18T07:24:47;6.67;;;3.40;;
74995;SDS011;63545;51.690;5.202;2023-09-18T07:27:12;3.97;;;3.13;;
74995;SDS011;63545;51.690;5.202;2023-09-18T07:29:38;5.77;;;3.50;;
74995;SDS011;63545;51.690;5.202;2023-09-18T07:32:04;5.18;;;3.75;;
74995;SDS011;63545;51.690;5.202;2023-09-18T07:34:29;5.53;;;3.50;;
74995;SDS011;63545;51.690;5.202;2023-09-18T07:36:54;4.73;;;3.20;;
74995;SDS011;63545;51.690;5.202;2023-09-18T07:39:21;5.90;;;3.65;;
74995;SDS011;63545;51.690;5.202;2023-09-18T07:41:46;5.70;;;3.33;;
74995;SDS011;63545;51.690;5.202;2023-09-18T07:44:13;4.57;;;3.22;;
74995;SDS011;63545;51.690;5.202;2023-09-18T07:46:43;5.60;;;3.00;;
74995;SDS011;63545;51.690;5.202;2023-09-18T07:49:09;7.40;;;3.00;;
74995;SDS011;63545;51.690;5.202;2023-09-18T07:51:34;4.90;;;3.10;;
74995;SDS011;63545;51.690;5.202;2023-09-18T07:54:00;5.83;;;3.17;;
74995;SDS011;63545;51.690;5.202;2023-09-18T07:56:25;6.30;;;2.70;;
74995;SDS011;63545;51.690;5.202;2023-09-18T07:58:50;5.40;;;3.00;;
74995;SDS011;63545;51.690;5.202;2023-09-18T08:01:16;4.93;;;2.80;;
74995;SDS011;63545;51.690;5.202;2023-09-18T08:03:42;5.72;;;2.80;;
74995;SDS011;63545;51.690;5.202;2023-09-18T08:06:07;6.67;;;2.70;;
74995;SDS011;63545;51.690;5.202;2023-09-18T08:08:32;5.90;;;2.73;;
74995;SDS011;63545;51.690;5.202;2023-09-18T08:11:00;7.00;;;2.80;;
74995;SDS011;63545;51.690;5.202;2023-09-18T08:13:31;5.07;;;2.65;;
74995;SDS011;63545;51.690;5.202;2023-09-18T08:15:56;7.57;;;3.07;;
74995;SDS011;63545;51.690;5.202;2023-09-18T08:18:22;4.70;;;2.90;;
74995;SDS011;63545;51.690;5.202;2023-09-18T08:20:51;7.25;;;3.00;;
74995;SDS011;63545;51.690;5.202;2023-09-18T08:23:16;5.23;;;2.93;;
74995;SDS011;63545;51.690;5.202;2023-09-18T08:25:42;5.63;;;2.73;;
74995;SDS011;63545;51.690;5.202;2023-09-18T08:28:07;11.43;;;3.13;;
74995;SDS011;63545;51.690;5.202;2023-09-18T08:30:33;6.80;;;2.90;;
74995;SDS011;63545;51.690;5.202;2023-09-18T08:32:59;10.57;;;3.50;;
74995;SDS011;63545;51.690;5.202;2023-09-18T08:35:24;6.20;;;2.90;;
74995;SDS011;63545;51.690;5.202;2023-09-18T08:37:54;8.18;;;3.30;;
74995;SDS011;63545;51.690;5.202;2023-09-18T08:40:19;5.73;;;2.90;;
74995;SDS011;63545;51.690;5.202;2023-09-18T08:42:46;4.32;;;2.42;;
74995;SDS011;63545;51.690;5.202;2023-09-18T08:45:15;6.13;;;2.80;;
74995;SDS011;63545;51.690;5.202;2023-09-18T08:47:46;6.43;;;2.47;;
74995;SDS011;63545;51.690;5.202;2023-09-18T08:50:11;4.28;;;2.70;;
74995;SDS011;63545;51.690;5.202;2023-09-18T08:52:37;3.80;;;2.87;;
74995;SDS011;63545;51.690;5.202;2023-09-18T08:55:03;5.70;;;2.70;;
74995;SDS011;63545;51.690;5.202;2023-09-18T08:57:29;5.83;;;2.97;;
74995;SDS011;63545;51.690;5.202;2023-09-18T08:59:56;6.97;;;2.92;;
74995;SDS011;63545;51.690;5.202;2023-09-18T09:02:22;6.90;;;3.20;;
74995;SDS011;63545;51.690;5.202;2023-09-18T09:04:48;6.23;;;3.10;;
74995;SDS011;63545;51.690;5.202;2023-09-18T09:07:13;5.93;;;3.00;;
74995;SDS011;63545;51.690;5.202;2023-09-18T09:09:38;4.13;;;3.33;;
74995;SDS011;63545;51.690;5.202;2023-09-18T09:12:05;5.75;;;2.65;;
74995;SDS011;63545;51.690;5.202;2023-09-18T09:14:30;4.72;;;2.78;;
74995;SDS011;63545;51.690;5.202;2023-09-18T09:16:56;5.17;;;2.53;;
74995;SDS011;63545;51.690;5.202;2023-09-18T09:22:00;6.33;;;2.70;;
74995;SDS011;63545;51.690;5.202;2023-09-18T09:24:39;4.15;;;2.40;;
74995;SDS011;63545;51.690;5.202;2023-09-18T09:27:08;7.78;;;2.97;;
74995;SDS011;63545;51.690;5.202;2023-09-18T09:29:34;7.95;;;2.92;;
74995;SDS011;63545;51.690;5.202;2023-09-18T09:34:40;10.63;;;3.50;;
74995;SDS011;63545;51.690;5.202;2023-09-18T09:37:06;7.55;;;3.35;;
74995;SDS011;63545;51.690;5.202;2023-09-18T09:39:32;9.27;;;4.00;;
74995;SDS011;63545;51.690;5.202;2023-09-18T09:41:59;6.38;;;3.63;;
74995;SDS011;63545;51.690;5.202;2023-09-18T09:44:26;7.95;;;3.60;;
74995;SDS011;63545;51.690;5.202;2023-09-18T09:46:52;8.67;;;3.70;;
74995;SDS011;63545;51.690;5.202;2023-09-18T09:49:17;7.75;;;3.53;;
74995;SDS011;63545;51.690;5.202;2023-09-18T09:51:45;6.13;;;3.57;;
74995;SDS011;63545;51.690;5.202;2023-09-18T09:54:10;8.88;;;3.40;;
74995;SDS011;63545;51.690;5.202;2023-09-18T09:59:08;11.17;;;3.47;;
74995;SDS011;63545;51.690;5.202;2023-09-18T10:01:35;6.90;;;3.30;;
74995;SDS011;63545;51.690;5.202;2023-09-18T10:04:12;6.82;;;3.13;;
74995;SDS011;63545;51.690;5.202;2023-09-18T10:06:38;10.37;;;3.20;;
74995;SDS011;63545;51.690;5.202;2023-09-18T10:09:07;9.30;;;3.78;;
74995;SDS011;63545;51.690;5.202;2023-09-18T10:11:37;7.72;;;3.40;;
74995;SDS011;63545;51.690;5.202;2023-09-18T10:14:13;6.80;;;3.28;;
74995;SDS011;63545;51.690;5.202;2023-09-18T10:16:41;6.97;;;3.17;;
74995;SDS011;63545;51.690;5.202;2023-09-18T10:22:01;10.32;;;4.18;;
74995;SDS011;63545;51.690;5.202;2023-09-18T10:24:31;9.88;;;3.90;;
74995;SDS011;63545;51.690;5.202;2023-09-18T10:26:59;6.88;;;4.05;;
74995;SDS011;63545;51.690;5.202;2023-09-18T10:29:28;7.90;;;3.73;;
74995;SDS011;63545;51.690;5.202;2023-09-18T10:31:55;9.63;;;3.42;;
74995;SDS011;63545;51.690;5.202;2023-09-18T10:34:21;6.70;;;3.20;;
74995;SDS011;63545;51.690;5.202;2023-09-18T10:36:48;9.77;;;3.70;;
74995;SDS011;63545;51.690;5.202;2023-09-18T10:39:14;11.13;;;3.58;;
74995;SDS011;63545;51.690;5.202;2023-09-18T10:41:46;10.15;;;3.72;;
74995;SDS011;63545;51.690;5.202;2023-09-18T10:44:12;5.22;;;3.72;;
74995;SDS011;63545;51.690;5.202;2023-09-18T10:46:38;7.18;;;3.80;;
74995;SDS011;63545;51.690;5.202;2023-09-18T10:49:04;8.03;;;3.50;;
74995;SDS011;63545;51.690;5.202;2023-09-18T10:51:30;8.98;;;3.85;;
74995;SDS011;63545;51.690;5.202;2023-09-18T10:53:57;6.43;;;3.47;;
74995;SDS011;63545;51.690;5.202;2023-09-18T10:56:23;7.95;;;3.80;;
74995;SDS011;63545;51.690;5.202;2023-09-18T10:58:56;7.60;;;3.43;;
74995;SDS011;63545;51.690;5.202;2023-09-18T11:01:23;9.77;;;4.03;;
74995;SDS011;63545;51.690;5.202;2023-09-18T11:03:50;9.10;;;4.05;;
74995;SDS011;63545;51.690;5.202;2023-09-18T11:06:15;7.72;;;3.97;;
74995;SDS011;63545;51.690;5.202;2023-09-18T11:08:43;9.13;;;3.83;;
74995;SDS011;63545;51.690;5.202;2023-09-18T11:11:10;11.88;;;4.30;;
74995;SDS011;63545;51.690;5.202;2023-09-18T11:13:50;11.40;;;3.97;;
74995;SDS011;63545;51.690;5.202;2023-09-18T11:18:54;8.35;;;3.40;;
74995;SDS011;63545;51.690;5.202;2023-09-18T11:21:31;7.17;;;3.93;;
74995;SDS011;63545;51.690;5.202;2023-09-18T11:23:58;5.38;;;3.50;;
74995;SDS011;63545;51.690;5.202;2023-09-18T11:26:33;11.43;;;3.83;;
74995;SDS011;63545;51.690;5.202;2023-09-18T11:29:09;8.38;;;3.85;;
74995;SDS011;63545;51.690;5.202;2023-09-18T11:31:48;6.22;;;4.20;;
74995;SDS011;63545;51.690;5.202;2023-09-18T11:34:28;9.80;;;4.73;;
74995;SDS011;63545;51.690;5.202;2023-09-18T11:37:00;12.93;;;3.92;;
74995;SDS011;63545;51.690;5.202;2023-09-18T11:39:32;9.27;;;3.85;;
74995;SDS011;63545;51.690;5.202;2023-09-18T11:42:06;9.13;;;3.63;;
74995;SDS011;63545;51.690;5.202;2023-09-18T11:44:32;6.57;;;3.80;;
74995;SDS011;63545;51.690;5.202;2023-09-18T11:46:58;11.00;;;4.20;;
74995;SDS011;63545;51.690;5.202;2023-09-18T11:49:25;9.90;;;3.88;;
74995;SDS011;63545;51.690;5.202;2023-09-18T11:51:52;8.93;;;3.50;;
74995;SDS011;63545;51.690;5.202;2023-09-18T11:54:18;7.93;;;3.40;;
74995;SDS011;63545;51.690;5.202;2023-09-18T11:56:44;7.70;;;3.70;;
74995;SDS011;63545;51.690;5.202;2023-09-18T11:59:09;9.00;;;3.85;;
74995;SDS011;63545;51.690;5.202;2023-09-18T12:01:36;7.90;;;3.70;;
74995;SDS011;63545;51.690;5.202;2023-09-18T12:04:04;6.97;;;3.50;;
74995;SDS011;63545;51.690;5.202;2023-09-18T12:06:39;8.23;;;3.80;;
74995;SDS011;63545;51.690;5.202;2023-09-18T12:09:05;7.53;;;3.30;;
74995;SDS011;63545;51.690;5.202;2023-09-18T12:11:32;8.82;;;3.35;;
74995;SDS011;63545;51.690;5.202;2023-09-18T12:14:00;5.77;;;3.37;;
74995;SDS011;63545;51.690;5.202;2023-09-18T12:16:26;7.95;;;3.40;;
74995;SDS011;63545;51.690;5.202;2023-09-18T12:18:52;8.85;;;3.40;;
74995;SDS011;63545;51.690;5.202;2023-09-18T12:21:17;8.23;;;3.33;;
74995;SDS011;63545;51.690;5.202;2023-09-18T12:23:44;6.77;;;3.60;;
74995;SDS011;63545;51.690;5.202;2023-09-18T12:26:14;8.65;;;3.60;;
74995;SDS011;63545;51.690;5.202;2023-09-18T12:28:41;6.00;;;3.40;;
74995;SDS011;63545;51.690;5.202;2023-09-18T12:31:14;4.68;;;3.10;;
74995;SDS011;63545;51.690;5.202;2023-09-18T12:33:40;5.75;;;3.10;;
74995;SDS011;63545;51.690;5.202;2023-09-18T12:36:08;9.23;;;3.30;;
74995;SDS011;63545;51.690;5.202;2023-09-18T12:38:34;7.55;;;3.13;;
74995;SDS011;63545;51.690;5.202;2023-09-18T12:41:01;6.32;;;3.38;;
74995;SDS011;63545;51.690;5.202;2023-09-18T12:43:49;7.18;;;2.97;;
74995;SDS011;63545;51.690;5.202;2023-09-18T12:46:15;6.60;;;3.22;;
74995;SDS011;63545;51.690;5.202;2023-09-18T12:48:40;7.50;;;3.40;;
74995;SDS011;63545;51.690;5.202;2023-09-18T12:51:12;6.78;;;3.30;;
74995;SDS011;63545;51.690;5.202;2023-09-18T12:53:38;4.63;;;2.93;;
74995;SDS011;63545;51.690;5.202;2023-09-18T12:56:13;8.82;;;3.15;;
74995;SDS011;63545;51.690;5.202;2023-09-18T12:58:39;5.68;;;2.95;;
74995;SDS011;63545;51.690;5.202;2023-09-18T13:01:06;5.50;;;3.00;;
74995;SDS011;63545;51.690;5.202;2023-09-18T13:03:53;9.40;;;3.20;;
74995;SDS011;63545;51.690;5.202;2023-09-18T13:06:19;5.57;;;3.03;;
74995;SDS011;63545;51.690;5.202;2023-09-18T13:08:45;6.40;;;2.90;;
74995;SDS011;63545;51.690;5.202;2023-09-18T13:11:11;4.90;;;3.00;;
74995;SDS011;63545;51.690;5.202;2023-09-18T13:13:39;6.85;;;3.13;;
74995;SDS011;63545;51.690;5.202;2023-09-18T13:16:05;6.20;;;2.80;;
74995;SDS011;63545;51.690;5.202;2023-09-18T13:18:31;7.43;;;3.10;;
74995;SDS011;63545;51.690;5.202;2023-09-18T13:20:57;5.05;;;2.70;;
74995;SDS011;63545;51.690;5.202;2023-09-18T13:23:29;6.00;;;3.10;;
74995;SDS011;63545;51.690;5.202;2023-09-18T13:25:58;5.80;;;3.00;;
74995;SDS011;63545;51.690;5.202;2023-09-18T13:28:25;5.65;;;2.90;;
74995;SDS011;63545;51.690;5.202;2023-09-18T13:30:50;5.37;;;2.70;;
74995;SDS011;63545;51.690;5.202;2023-09-18T13:33:16;5.03;;;3.20;;
74995;SDS011;63545;51.690;5.202;2023-09-18T13:35:42;7.85;;;2.72;;
74995;SDS011;63545;51.690;5.202;2023-09-18T13:38:09;6.15;;;2.60;;
74995;SDS011;63545;51.690;5.202;2023-09-18T13:40:42;5.72;;;2.50;;
74995;SDS011;63545;51.690;5.202;2023-09-18T13:43:11;5.23;;;2.60;;
74995;SDS011;63545;51.690;5.202;2023-09-18T13:45:37;5.15;;;2.40;;
74995;SDS011;63545;51.690;5.202;2023-09-18T13:48:04;3.85;;;2.70;;
74995;SDS011;63545;51.690;5.202;2023-09-18T13:50:31;7.38;;;2.33;;
74995;SDS011;63545;51.690;5.202;2023-09-18T13:52:56;5.22;;;2.60;;
74995;SDS011;63545;51.690;5.202;2023-09-18T13:55:22;7.33;;;2.83;;
74995;SDS011;63545;51.690;5.202;2023-09-18T13:57:47;8.93;;;2.60;;
74995;SDS011;63545;51.690;5.202;2023-09-18T14:00:13;6.13;;;2.57;;
74995;SDS011;63545;51.690;5.202;2023-09-18T14:02:39;7.13;;;2.50;;
74995;SDS011;63545;51.690;5.202;2023-09-18T14:05:05;4.18;;;2.35;;
74995;SDS011;63545;51.690;5.202;2023-09-18T14:07:31;6.95;;;2.33;;
74995;SDS011;63545;51.690;5.202;2023-09-18T14:09:57;5.73;;;2.43;;
74995;SDS011;63545;51.690;5.202;2023-09-18T14:12:23;4.57;;;2.30;;
74995;SDS011;63545;51.690;5.202;2023-09-18T14:14:49;4.60;;;2.50;;
74995;SDS011;63545;51.690;5.202;2023-09-18T14:17:15;6.93;;;2.20;;
74995;SDS011;63545;51.690;5.202;2023-09-18T14:19:42;4.20;;;2.50;;
74995;SDS011;63545;51.690;5.202;2023-09-18T14:22:08;7.47;;;2.80;;
74995;SDS011;63545;51.690;5.202;2023-09-18T14:24:34;4.27;;;2.23;;
74995;SDS011;63545;51.690;5.202;2023-09-18T14:27:00;4.10;;;2.50;;
74995;SDS011;63545;51.690;5.202;2023-09-18T14:29:26;5.13;;;2.22;;
74995;SDS011;63545;51.690;5.202;2023-09-18T14:31:51;4.67;;;2.53;;
74995;SDS011;63545;51.690;5.202;2023-09-18T14:34:17;6.00;;;2.33;;
74995;SDS011;63545;51.690;5.202;2023-09-18T14:36:42;4.40;;;2.37;;
74995;SDS011;63545;51.690;5.202;2023-09-18T14:39:09;5.47;;;2.53;;
74995;SDS011;63545;51.690;5.202;2023-09-18T14:41:35;5.95;;;2.38;;
74995;SDS011;63545;51.690;5.202;2023-09-18T14:44:01;6.13;;;2.60;;
74995;SDS011;63545;51.690;5.202;2023-09-18T14:46:29;3.83;;;2.50;;
74995;SDS011;63545;51.690;5.202;2023-09-18T14:48:56;8.20;;;2.38;;